Flugplatz Spangdahlem Air Base

Bericht für ETAD

vom 23.02. um 23:11 UTC

Wind 5 kt aus 250°

Sichtweite 10 km oder mehr

aufgebrochene Bewölkung in 3500 ft

bedeckt in 4300 ft

Temperatur 6.0°C

Taupunkt 1.0°C

Luftfeuchtigkeit 70%

Luftdruck 1023 hPa

ETAD 232311Z AUTO 25005KT 9999 BKN035 OVC043 06/01 A3022 RMK AO2 SLP233 $
Keine Prognose (TAF) verfügbar.
Impressum